Time;durP1;ratioP1;P1;durP2;ratioP2;P2;SDS_P1;SDS_P2;PMS_P1;PMS_P2;Temp;Humidity;BMP_temperature;BMP_pressure;BME280_temperature;BME280_humidity;BME280_pressure;Samples;Min_cycle;Max_cycle;Signal;HPM_P1;HPM_P2
2022/10/08 04:01:13;;;;;;;1.40;0.93;;;10.40;99.90;;;;;;6210633;22;20542;-69
2022/10/08 04:03:40;;;;;;;0.93;0.93;;;10.50;99.90;;;;;;6242654;23;20165;-69
2022/10/08 04:06:08;;;;;;;0.98;0.98;;;10.50;99.90;;;;;;6243797;23;20188;-69
2022/10/08 04:08:35;;;;;;;1.55;1.55;;;10.50;99.90;;;;;;6244218;23;20201;-70
2022/10/08 04:11:03;;;;;;;1.30;1.30;;;10.50;99.90;;;;;;6243605;22;20208;-69
2022/10/08 04:13:30;;;;;;;6.95;1.98;;;10.60;99.90;;;;;;6244210;23;20179;-68
2022/10/08 04:16:01;;;;;;;1.52;1.42;;;10.60;99.90;;;;;;6244533;23;20272;-70
2022/10/08 04:18:29;;;;;;;6.53;1.55;;;10.60;99.90;;;;;;6244127;23;20189;-71
2022/10/08 04:20:58;;;;;;;0.90;0.90;;;10.70;99.90;;;;;;6242623;22;20198;-70
2022/10/08 04:23:25;;;;;;;5.30;1.45;;;10.60;99.90;;;;;;6244030;23;20189;-69
2022/10/08 04:25:52;;;;;;;1.58;1.30;;;10.70;99.90;;;;;;6243801;23;20199;-70
2022/10/08 04:28:19;;;;;;;5.30;1.05;;;10.70;99.90;;;;;;6244160;23;20186;-69
2022/10/08 04:30:55;;;;;;;1.92;1.85;;;10.70;99.90;;;;;;6243590;22;20237;-70
2022/10/08 04:33:21;;;;;;;4.28;1.48;;;10.70;99.90;;;;;;6243798;23;20169;-71
2022/10/08 04:35:50;;;;;;;2.08;1.30;;;10.80;99.90;;;;;;6242898;23;20186;-70
2022/10/08 04:38:17;;;;;;;1.25;1.25;;;10.80;99.90;;;;;;6241565;23;20618;-69
2022/10/08 04:40:43;;;;;;;1.70;1.60;;;10.80;99.90;;;;;;6242900;22;20201;-71
2022/10/08 04:43:10;;;;;;;0.93;0.93;;;10.80;99.90;;;;;;6243030;23;20474;-69
2022/10/08 04:45:42;;;;;;;1.23;1.23;;;10.80;99.90;;;;;;6243479;23;20202;-69
2022/10/08 04:48:08;;;;;;;2.67;2.35;;;10.80;99.90;;;;;;6243669;23;20191;-70
2022/10/08 04:50:35;;;;;;;1.38;1.00;;;10.90;99.90;;;;;;6241603;22;20202;-69
2022/10/08 04:53:03;;;;;;;1.13;1.13;;;10.90;99.90;;;;;;6242416;23;20189;-70
2022/10/08 04:55:30;;;;;;;4.40;1.25;;;10.90;99.90;;;;;;6242765;23;20491;-70
2022/10/08 04:57:57;;;;;;;1.55;1.10;;;10.90;99.90;;;;;;6243518;23;20182;-69
2022/10/08 05:00:23;;;;;;;3.13;1.33;;;10.90;99.90;;;;;;6243364;22;20188;-69
2022/10/08 05:02:51;;;;;;;8.15;1.80;;;10.90;99.90;;;;;;6243561;23;20170;-70
2022/10/08 05:05:17;;;;;;;4.97;0.80;;;10.90;99.90;;;;;;6240294;23;20463;-70
2022/10/08 05:07:44;;;;;;;1.00;1.00;;;10.90;99.90;;;;;;6242513;23;20477;-70
2022/10/08 05:10:12;;;;;;;1.30;0.75;;;10.90;99.90;;;;;;6243180;23;20208;-70
2022/10/08 05:12:39;;;;;;;1.58;1.40;;;10.90;99.90;;;;;;6243387;23;20190;-70
2022/10/08 05:15:06;;;;;;;0.90;0.90;;;11.00;99.90;;;;;;6243231;23;20512;-70
2022/10/08 05:17:33;;;;;;;2.30;1.35;;;11.00;99.90;;;;;;6243631;23;20262;-70
2022/10/08 05:20:00;;;;;;;1.25;1.15;;;11.00;99.90;;;;;;6242675;23;20184;-70
2022/10/08 05:22:26;;;;;;;4.32;1.42;;;11.00;99.90;;;;;;6243478;22;20208;-71
2022/10/08 05:24:53;;;;;;;1.45;1.35;;;11.00;99.90;;;;;;6242703;23;20221;-70
2022/10/08 05:27:21;;;;;;;2.17;1.88;;;11.00;99.90;;;;;;6243253;23;20182;-70
2022/10/08 05:29:48;;;;;;;2.45;1.10;;;11.10;99.90;;;;;;6252706;23;20204;-71
2022/10/08 05:32:14;;;;;;;2.65;1.50;;;11.10;99.90;;;;;;6242168;22;20202;-70
2022/10/08 05:34:41;;;;;;;4.13;1.25;;;11.10;99.90;;;;;;6241229;23;20182;-70
2022/10/08 05:37:08;;;;;;;1.42;1.27;;;11.10;99.90;;;;;;6239559;23;20295;-70
2022/10/08 05:39:34;;;;;;;1.85;1.45;;;11.10;99.90;;;;;;6242344;23;20292;-70
2022/10/08 05:42:01;;;;;;;1.48;1.38;;;11.10;99.90;;;;;;6243041;22;20206;-69
2022/10/08 05:44:29;;;;;;;1.10;1.10;;;11.10;99.90;;;;;;6242581;23;20177;-69
2022/10/08 05:46:56;;;;;;;1.38;1.25;;;11.20;99.90;;;;;;6243128;23;20552;-70
2022/10/08 05:49:23;;;;;;;5.07;1.85;;;11.20;99.90;;;;;;6241663;23;20203;-69
2022/10/08 05:51:50;;;;;;;3.13;1.67;;;11.20;99.90;;;;;;6241981;22;20540;-69
2022/10/08 05:54:17;;;;;;;3.15;1.00;;;11.20;99.90;;;;;;6243044;23;20184;-70
2022/10/08 05:56:44;;;;;;;11.63;2.30;;;11.20;99.90;;;;;;6241865;23;20674;-69
2022/10/08 05:59:16;;;;;;;5.00;1.00;;;11.20;99.90;;;;;;6243191;23;20200;-69
2022/10/08 06:01:45;;;;;;;3.63;1.88;;;11.30;99.90;;;;;;6241256;22;20688;-71
2022/10/08 06:04:12;;;;;;;2.00;1.30;;;11.30;99.90;;;;;;6241715;23;20190;-70
2022/10/08 06:06:41;;;;;;;4.30;2.22;;;11.30;99.90;;;;;;6241469;23;20179;-70
2022/10/08 06:09:10;;;;;;;0.95;0.93;;;11.30;99.90;;;;;;6242589;23;20198;-71
2022/10/08 06:11:37;;;;;;;0.68;0.68;;;11.30;99.90;;;;;;6243072;22;20201;-70
2022/10/08 06:14:05;;;;;;;1.10;1.10;;;11.40;99.90;;;;;;6242055;23;20466;-71
2022/10/08 06:16:33;;;;;;;1.95;1.17;;;11.40;99.90;;;;;;6242710;23;20163;-71
2022/10/08 06:19:02;;;;;;;8.80;1.20;;;11.40;99.90;;;;;;6241943;23;20224;-71
2022/10/08 06:21:29;;;;;;;7.07;2.45;;;11.40;99.90;;;;;;6240457;22;20234;-70
2022/10/08 06:23:57;;;;;;;1.20;1.20;;;11.40;99.90;;;;;;6241262;23;20665;-70
2022/10/08 06:26:26;;;;;;;3.67;1.10;;;11.50;99.90;;;;;;6242084;23;20663;-70
2022/10/08 06:28:53;;;;;;;1.50;1.40;;;11.60;99.90;;;;;;6242566;23;20178;-70
2022/10/08 06:31:20;;;;;;;2.47;2.38;;;11.60;99.90;;;;;;6242173;22;20202;-70
2022/10/08 06:33:47;;;;;;;1.20;0.73;;;11.70;99.90;;;;;;6241232;23;20197;-70
2022/10/08 06:36:17;;;;;;;2.95;1.02;;;11.70;99.90;;;;;;6242353;23;20179;-70
2022/10/08 06:38:44;;;;;;;0.82;0.82;;;11.70;99.90;;;;;;6241597;23;20629;-70
2022/10/08 06:41:10;;;;;;;1.13;1.13;;;11.80;99.90;;;;;;6242233;22;20194;-70
2022/10/08 06:43:37;;;;;;;2.00;1.42;;;11.80;99.90;;;;;;6242411;23;20193;-71
2022/10/08 06:46:05;;;;;;;1.92;1.83;;;11.80;99.90;;;;;;6242070;23;20190;-70
2022/10/08 06:48:32;;;;;;;8.82;1.30;;;11.90;99.90;;;;;;6242295;23;20468;-70
2022/10/08 06:51:00;;;;;;;9.38;1.67;;;11.90;99.90;;;;;;6241211;22;20210;-71
2022/10/08 06:53:28;;;;;;;0.90;0.90;;;11.90;99.90;;;;;;6241600;23;20183;-70
2022/10/08 06:55:59;;;;;;;2.15;1.42;;;11.90;99.90;;;;;;6239714;23;20186;-70
2022/10/08 06:58:25;;;;;;;1.23;1.13;;;11.90;99.90;;;;;;6240980;23;20190;-70
2022/10/08 07:01:02;;;;;;;4.10;0.97;;;11.90;99.90;;;;;;6242061;22;20209;-70
2022/10/08 07:03:29;;;;;;;1.23;0.75;;;11.90;99.90;;;;;;6238968;23;20748;-70
2022/10/08 07:05:55;;;;;;;3.80;0.70;;;12.00;99.90;;;;;;6241147;23;20185;-70
2022/10/08 07:08:22;;;;;;;1.70;1.65;;;12.00;99.90;;;;;;6242496;23;20475;-70
2022/10/08 07:10:50;;;;;;;1.17;0.90;;;12.00;99.90;;;;;;6242189;22;20214;-70
2022/10/08 07:13:17;;;;;;;1.73;1.50;;;12.00;99.90;;;;;;6242067;23;20232;-70
2022/10/08 07:15:44;;;;;;;1.10;1.10;;;12.00;99.90;;;;;;6241972;23;20190;-70
2022/10/08 07:18:11;;;;;;;1.10;1.10;;;12.10;99.90;;;;;;6240542;23;20238;-71
2022/10/08 07:20:38;;;;;;;1.40;1.30;;;12.10;99.90;;;;;;6240224;22;20471;-70
2022/10/08 07:23:05;;;;;;;0.75;0.75;;;12.20;99.90;;;;;;6240689;23;20197;-71
2022/10/08 07:25:32;;;;;;;1.33;1.10;;;12.20;99.90;;;;;;6241300;23;20183;-71
2022/10/08 07:28:00;;;;;;;1.33;1.33;;;12.30;99.90;;;;;;6242223;23;20870;-70
2022/10/08 07:30:26;;;;;;;1.60;1.47;;;12.30;99.90;;;;;;6241658;22;20543;-71
2022/10/08 07:32:53;;;;;;;2.58;0.85;;;12.20;99.90;;;;;;6241451;23;20431;-71
2022/10/08 07:35:20;;;;;;;0.82;0.82;;;12.20;99.90;;;;;;6241843;23;20185;-71
2022/10/08 07:37:46;;;;;;;0.90;0.90;;;12.10;99.90;;;;;;6241503;23;20285;-71
2022/10/08 07:40:13;;;;;;;1.05;0.70;;;12.10;99.90;;;;;;6243858;22;20178;-72
2022/10/08 07:42:40;;;;;;;1.10;1.10;;;12.10;99.90;;;;;;6243667;23;20189;-71
2022/10/08 07:45:09;;;;;;;0.83;0.83;;;12.20;99.90;;;;;;6244391;23;20444;-71
2022/10/08 07:47:35;;;;;;;1.20;1.10;;;12.20;99.90;;;;;;6243940;23;20421;-71
2022/10/08 07:50:03;;;;;;;1.30;1.30;;;12.10;99.90;;;;;;6243166;23;20449;-71
2022/10/08 07:52:30;;;;;;;1.05;1.05;;;12.20;99.90;;;;;;6243834;22;20199;-71
2022/10/08 07:54:57;;;;;;;1.95;1.85;;;12.20;99.90;;;;;;6243255;23;20183;-71
2022/10/08 07:57:23;;;;;;;5.85;1.30;;;12.20;99.90;;;;;;6244405;23;20283;-71
2022/10/08 07:59:50;;;;;;;1.13;1.13;;;12.30;99.90;;;;;;6243264;23;20637;-70
2022/10/08 08:02:18;;;;;;;6.28;2.53;;;12.40;99.90;;;;;;6243039;22;20449;-70
2022/10/08 08:04:45;;;;;;;2.03;1.93;;;12.40;99.90;;;;;;6242818;23;20565;-70
2022/10/08 08:07:11;;;;;;;1.38;1.10;;;12.50;99.90;;;;;;6243559;23;20447;-70
2022/10/08 08:09:39;;;;;;;1.80;1.70;;;12.60;99.90;;;;;;6244045;23;20285;-69
2022/10/08 08:12:05;;;;;;;1.42;1.33;;;12.70;99.90;;;;;;6243993;22;20479;-70
2022/10/08 08:14:32;;;;;;;1.13;1.03;;;12.80;99.90;;;;;;6242681;23;20504;-70
2022/10/08 08:16:59;;;;;;;5.63;2.30;;;12.80;99.90;;;;;;6243837;23;20423;-70
2022/10/08 08:19:27;;;;;;;3.70;1.33;;;12.80;99.90;;;;;;6243349;23;20422;-70
2022/10/08 08:21:54;;;;;;;2.53;1.33;;;12.90;99.90;;;;;;6241582;22;20944;-70
2022/10/08 08:24:21;;;;;;;1.67;1.58;;;13.00;99.90;;;;;;6243815;23;20444;-70
2022/10/08 08:26:47;;;;;;;2.80;1.07;;;13.00;99.90;;;;;;6243661;23;20182;-70
2022/10/08 08:29:16;;;;;;;0.80;0.80;;;13.10;99.90;;;;;;6243015;23;20421;-70
2022/10/08 08:31:45;;;;;;;1.60;1.03;;;13.10;99.90;;;;;;6243316;22;20454;-70
2022/10/08 08:34:14;;;;;;;1.17;1.17;;;13.30;99.90;;;;;;6242778;23;20435;-70
2022/10/08 08:36:44;;;;;;;3.30;2.20;;;13.40;99.90;;;;;;6243230;23;20473;-70
2022/10/08 08:39:16;;;;;;;1.60;1.60;;;13.40;99.90;;;;;;6243683;23;20820;-70
2022/10/08 08:41:54;;;;;;;1.90;1.80;;;13.50;99.90;;;;;;6242513;22;20437;-70
2022/10/08 08:44:24;;;;;;;1.33;1.33;;;13.70;99.90;;;;;;6243140;23;20707;-71
2022/10/08 08:46:56;;;;;;;3.50;1.40;;;13.90;99.90;;;;;;6242649;23;20426;-70
2022/10/08 08:49:28;;;;;;;3.57;1.17;;;13.90;99.90;;;;;;6242597;23;20407;-71
2022/10/08 08:51:58;;;;;;;1.17;1.17;;;13.90;99.90;;;;;;6242677;22;20462;-68
2022/10/08 08:54:26;;;;;;;0.73;0.73;;;14.00;99.90;;;;;;6242539;23;20433;-70
2022/10/08 08:56:54;;;;;;;1.10;1.10;;;14.10;99.90;;;;;;6242813;23;20423;-69
2022/10/08 08:59:27;;;;;;;5.97;1.27;;;14.10;99.90;;;;;;6242650;23;20430;-69
2022/10/08 09:01:57;;;;;;;3.80;1.77;;;14.20;99.90;;;;;;6243072;22;20454;-69
2022/10/08 09:04:33;;;;;;;1.67;1.67;;;14.20;99.90;;;;;;6242598;23;20415;-69
2022/10/08 09:07:07;;;;;;;1.27;1.27;;;14.30;99.90;;;;;;6242449;23;20742;-68
2022/10/08 09:09:37;;;;;;;5.80;1.30;;;14.30;99.90;;;;;;6243444;23;20411;-69
2022/10/08 09:12:14;;;;;;;2.40;1.30;;;14.20;99.90;;;;;;6242983;22;20558;-69
2022/10/08 09:14:44;;;;;;;0.90;0.90;;;14.30;99.90;;;;;;6242354;23;20846;-68
2022/10/08 09:17:14;;;;;;;1.10;1.03;;;14.30;99.90;;;;;;6243204;23;20433;-70
2022/10/08 09:19:41;;;;;;;1.50;1.50;;;14.50;99.90;;;;;;6241685;23;20415;-70
2022/10/08 09:22:20;;;;;;;1.23;1.23;;;14.50;99.90;;;;;;6241535;22;20522;-70
2022/10/08 09:24:48;;;;;;;0.73;0.73;;;14.50;99.90;;;;;;6243434;23;20407;-70
2022/10/08 09:27:15;;;;;;;1.20;1.03;;;14.60;99.90;;;;;;6243499;23;20420;-70
2022/10/08 09:29:42;;;;;;;1.80;1.03;;;14.70;99.90;;;;;;6242854;23;20767;-71
2022/10/08 09:32:15;;;;;;;1.47;1.20;;;14.80;99.90;;;;;;6242335;22;20462;-70
2022/10/08 09:34:42;;;;;;;2.03;1.60;;;14.90;99.90;;;;;;6242016;23;20414;-70
2022/10/08 09:37:18;;;;;;;0.87;0.87;;;14.90;99.90;;;;;;6240590;23;20446;-71
2022/10/08 09:40:07;;;;;;;0.70;0.70;;;15.00;99.90;;;;;;6242447;23;20407;-71
2022/10/08 09:42:34;;;;;;;1.40;1.40;;;15.20;99.90;;;;;;6242163;22;20437;-72
2022/10/08 09:45:02;;;;;;;1.90;1.03;;;15.30;99.90;;;;;;6242437;23;20907;-70
2022/10/08 09:47:29;;;;;;;1.07;0.97;;;15.20;99.90;;;;;;6243564;23;20427;-70
2022/10/08 09:50:04;;;;;;;0.90;0.90;;;15.30;99.90;;;;;;6243713;23;20423;-70
2022/10/08 09:52:34;;;;;;;3.90;0.97;;;15.30;99.90;;;;;;6248354;22;20446;-71
2022/10/08 09:55:07;;;;;;;2.00;1.00;;;15.30;99.90;;;;;;6252122;23;20415;-71
2022/10/08 09:57:42;;;;;;;1.70;0.80;;;15.30;99.90;;;;;;6243455;23;20431;-70
2022/10/08 10:00:24;;;;;;;2.87;1.30;;;15.30;99.90;;;;;;6242711;23;20418;-71
2022/10/08 10:02:54;;;;;;;5.50;1.20;;;15.20;99.90;;;;;;6243096;23;20399;-71
2022/10/08 10:05:24;;;;;;;2.40;1.03;;;15.20;99.90;;;;;;6241594;23;20419;-71
2022/10/08 10:07:53;;;;;;;4.03;2.10;;;15.40;99.90;;;;;;6243515;23;20414;-71
2022/10/08 10:10:26;;;;;;;1.03;1.03;;;15.50;99.90;;;;;;6242485;22;20534;-71
2022/10/08 10:12:55;;;;;;;0.80;0.80;;;15.60;99.90;;;;;;6243900;23;20408;-71
2022/10/08 10:15:26;;;;;;;1.00;1.00;;;15.60;99.90;;;;;;6243798;23;20525;-71
2022/10/08 10:17:56;;;;;;;2.53;1.23;;;15.90;99.90;;;;;;6244096;23;20405;-71
2022/10/08 10:20:28;;;;;;;1.37;1.00;;;16.10;99.90;;;;;;6242730;22;20416;-71
2022/10/08 10:22:59;;;;;;;1.13;0.70;;;16.30;99.90;;;;;;6245068;23;20406;-71
2022/10/08 10:25:34;;;;;;;0.97;0.97;;;16.30;99.90;;;;;;6244013;23;20727;-71
2022/10/08 10:28:04;;;;;;;1.23;0.70;;;16.10;99.90;;;;;;6243245;23;20405;-71
2022/10/08 10:30:41;;;;;;;3.57;0.77;;;16.00;99.90;;;;;;6243383;22;20448;-71
2022/10/08 10:33:14;;;;;;;0.70;0.70;;;15.80;99.90;;;;;;6244154;23;20412;-71
2022/10/08 10:35:46;;;;;;;3.40;1.17;;;15.80;99.90;;;;;;6255406;23;21005;-71
2022/10/08 10:38:20;;;;;;;1.70;0.97;;;15.90;99.90;;;;;;6242010;23;20409;-70
2022/10/08 10:40:49;;;;;;;2.27;0.90;;;16.00;99.90;;;;;;6241643;22;20776;-70
2022/10/08 10:43:23;;;;;;;0.70;0.70;;;16.10;99.90;;;;;;6241790;23;20433;-70
2022/10/08 10:45:55;;;;;;;0.60;0.50;;;16.10;99.90;;;;;;6241989;23;20405;-70
2022/10/08 10:48:22;;;;;;;0.50;0.40;;;16.00;99.90;;;;;;6241542;23;20437;-70
2022/10/08 10:51:08;;;;;;;0.40;0.40;;;15.60;99.90;;;;;;6241240;22;20528;-70
2022/10/08 10:53:48;;;;;;;0.30;0.30;;;15.30;99.90;;;;;;6242675;23;20412;-70
2022/10/08 10:56:18;;;;;;;0.33;0.33;;;15.00;99.90;;;;;;6242609;23;20407;-70
2022/10/08 10:59:08;;;;;;;5.20;0.80;;;14.80;99.90;;;;;;6242743;23;20431;-70
2022/10/08 11:01:44;;;;;;;0.57;0.57;;;14.70;99.90;;;;;;6241937;22;20867;-70
2022/10/08 11:04:19;;;;;;;2.53;0.70;;;14.60;99.90;;;;;;6241783;23;20407;-71
2022/10/08 11:07:02;;;;;;;1.30;0.50;;;14.60;99.90;;;;;;6241359;23;20410;-71
2022/10/08 11:09:41;;;;;;;0.50;0.50;;;14.50;99.90;;;;;;6242613;23;20419;-71
2022/10/08 11:12:18;;;;;;;0.47;0.47;;;14.30;99.90;;;;;;6241080;22;20450;-70
2022/10/08 11:14:57;;;;;;;0.40;0.40;;;14.10;99.90;;;;;;6242186;23;20827;-71
2022/10/08 11:17:42;;;;;;;0.37;0.37;;;13.90;99.90;;;;;;6253750;23;20406;-70
2022/10/08 11:20:38;;;;;;;0.77;0.70;;;13.80;99.90;;;;;;6244561;23;20713;-71
2022/10/08 11:23:16;;;;;;;0.90;0.70;;;13.70;99.90;;;;;;6243022;23;20413;-70
2022/10/08 11:25:49;;;;;;;0.83;0.43;;;13.60;99.90;;;;;;6242279;23;20406;-71
2022/10/08 11:28:25;;;;;;;3.00;0.53;;;13.70;99.90;;;;;;6240223;23;20414;-71
2022/10/08 11:30:59;;;;;;;0.43;0.30;;;13.90;99.90;;;;;;6239979;22;20450;-71
2022/10/08 11:33:26;;;;;;;0.30;0.30;;;14.20;99.90;;;;;;6243360;23;20412;-71
2022/10/08 11:36:15;;;;;;;2.67;0.60;;;14.30;99.90;;;;;;6242336;23;20423;-71
2022/10/08 11:38:47;;;;;;;5.93;0.33;;;14.20;99.90;;;;;;6243291;23;20411;-71
2022/10/08 11:41:24;;;;;;;0.87;0.30;;;14.10;99.90;;;;;;6241160;22;20461;-70
2022/10/08 11:43:55;;;;;;;0.20;0.20;;;14.00;99.90;;;;;;6239478;23;20832;-71
2022/10/08 11:46:30;;;;;;;3.00;0.30;;;13.90;99.90;;;;;;6240054;23;20492;-71
2022/10/08 11:48:59;;;;;;;0.20;0.20;;;13.80;99.90;;;;;;6240314;23;21157;-71
2022/10/08 11:51:31;;;;;;;0.40;0.40;;;13.90;99.90;;;;;;6239875;22;20472;-70
2022/10/08 11:54:17;;;;;;;0.40;0.40;;;13.90;99.90;;;;;;6249636;23;20441;-70
2022/10/08 11:56:48;;;;;;;0.77;0.37;;;14.00;99.90;;;;;;6242918;23;20418;-70
2022/10/08 11:59:34;;;;;;;0.30;0.30;;;14.10;99.90;;;;;;6241498;23;20420;-70
2022/10/08 12:02:03;;;;;;;0.20;0.20;;;14.20;99.90;;;;;;6242438;22;20446;-71
2022/10/08 12:04:33;;;;;;;1.80;0.70;;;14.30;99.90;;;;;;6241969;23;20904;-71
2022/10/08 12:07:05;;;;;;;0.50;0.50;;;14.30;99.90;;;;;;6243115;23;20521;-69
2022/10/08 12:10:05;;;;;;;0.20;0.20;;;14.40;99.90;;;;;;6243310;23;20407;-70
2022/10/08 12:13:01;;;;;;;0.67;0.47;;;14.50;99.90;;;;;;6242418;22;20461;-71
2022/10/08 12:15:54;;;;;;;1.90;0.80;;;14.60;99.90;;;;;;6201676;23;20441;-71
2022/10/08 12:18:52;;;;;;;0.27;0.27;;;14.70;99.90;;;;;;6239959;23;20428;-71
2022/10/08 12:21:48;;;;;;;0.30;0.30;;;14.80;99.90;;;;;;6241149;22;20439;-71
2022/10/08 12:24:51;;;;;;;0.60;0.60;;;14.80;99.90;;;;;;6242912;23;20686;-69
2022/10/08 12:27:25;;;;;;;1.23;0.40;;;14.90;99.90;;;;;;6212174;23;20436;-64
2022/10/08 12:29:58;;;;;;;0.50;0.50;;;15.00;99.90;;;;;;6242890;23;20407;-65
2022/10/08 12:32:27;;;;;;;6.33;1.07;;;15.10;99.90;;;;;;6242792;22;20460;-64
2022/10/08 12:34:54;;;;;;;0.77;0.77;;;15.30;99.90;;;;;;6242565;23;20430;-66
2022/10/08 12:37:56;;;;;;;0.20;0.20;;;15.40;99.90;;;;;;6240571;23;20427;-66
2022/10/08 12:40:34;;;;;;;0.77;0.77;;;15.50;99.90;;;;;;6242014;22;20411;-65
2022/10/08 12:43:13;;;;;;;1.80;0.33;;;15.60;99.90;;;;;;6242439;23;20400;-65
2022/10/08 12:45:47;;;;;;;0.83;0.47;;;15.70;99.90;;;;;;6242490;23;20438;-66
2022/10/08 12:48:21;;;;;;;2.53;0.80;;;15.80;99.90;;;;;;6242996;23;20405;-66
2022/10/08 12:50:57;;;;;;;0.40;0.40;;;15.80;99.90;;;;;;6242758;22;20445;-65
2022/10/08 12:53:24;;;;;;;0.20;0.20;;;15.90;99.90;;;;;;6243792;23;20703;-65
2022/10/08 12:55:54;;;;;;;0.40;0.40;;;15.90;99.90;;;;;;6249200;23;20424;-65
2022/10/08 12:58:24;;;;;;;0.37;0.37;;;15.90;99.90;;;;;;6243396;23;20789;-66
2022/10/08 13:00:55;;;;;;;0.80;0.80;;;15.90;99.90;;;;;;6241842;22;20446;-65
2022/10/08 13:03:22;;;;;;;0.30;0.30;;;15.80;99.90;;;;;;6242564;23;20425;-64
2022/10/08 13:05:49;;;;;;;0.80;0.50;;;15.60;99.90;;;;;;6240356;23;20609;-65
2022/10/08 13:08:31;;;;;;;0.30;0.30;;;15.40;99.90;;;;;;6242818;23;20423;-65
2022/10/08 13:11:00;;;;;;;2.63;0.50;;;15.20;99.90;;;;;;6242087;22;20496;-66
2022/10/08 13:13:41;;;;;;;0.20;0.20;;;15.10;99.90;;;;;;6242953;23;20419;-66
2022/10/08 13:16:11;;;;;;;0.73;0.73;;;15.00;99.90;;;;;;6242357;23;20427;-66
2022/10/08 13:18:41;;;;;;;0.60;0.40;;;15.00;99.90;;;;;;6242306;23;20412;-67
2022/10/08 13:21:24;;;;;;;2.00;0.30;;;15.10;99.90;;;;;;6241838;22;20454;-66
2022/10/08 13:23:52;;;;;;;0.30;0.30;;;15.20;99.90;;;;;;6242368;23;20407;-68
2022/10/08 13:26:41;;;;;;;2.10;0.43;;;15.30;99.90;;;;;;6242792;23;20742;-66
2022/10/08 13:29:29;;;;;;;0.60;0.40;;;15.40;99.90;;;;;;6242471;23;20890;-66
2022/10/08 13:31:59;;;;;;;0.37;0.37;;;15.50;99.90;;;;;;6241329;22;20815;-66
2022/10/08 13:34:29;;;;;;;1.20;0.43;;;15.50;99.90;;;;;;6241104;23;20466;-66
2022/10/08 13:36:58;;;;;;;0.30;0.30;;;15.60;99.90;;;;;;6240440;23;20429;-65
2022/10/08 13:39:28;;;;;;;0.60;0.60;;;15.60;99.90;;;;;;6240685;23;20423;-66
2022/10/08 13:41:57;;;;;;;0.40;0.40;;;15.60;99.90;;;;;;6243720;22;20450;-67
2022/10/08 13:44:25;;;;;;;0.23;0.23;;;15.60;99.90;;;;;;6242835;23;20421;-67
2022/10/08 13:46:52;;;;;;;0.20;0.20;;;15.60;99.90;;;;;;6243327;23;20420;-67
2022/10/08 13:49:22;;;;;;;4.47;0.30;;;15.50;99.90;;;;;;6242353;23;20429;-70
2022/10/08 13:51:49;;;;;;;0.73;0.27;;;15.50;99.90;;;;;;6242470;22;20452;-69
2022/10/08 13:54:22;;;;;;;2.13;1.03;;;15.40;99.90;;;;;;6243074;23;20439;-70
2022/10/08 13:56:49;;;;;;;0.20;0.20;;;15.30;99.90;;;;;;6242687;23;20411;-69
2022/10/08 13:59:16;;;;;;;2.53;0.47;;;15.20;99.90;;;;;;6243034;23;20428;-69
2022/10/08 14:01:43;;;;;;;0.30;0.30;;;15.10;99.90;;;;;;6242726;22;20450;-70
2022/10/08 14:04:09;;;;;;;0.97;0.30;;;15.00;99.90;;;;;;6252335;23;20426;-70
2022/10/08 14:06:38;;;;;;;0.43;0.40;;;14.90;99.90;;;;;;6242971;23;20433;-69
2022/10/08 14:09:06;;;;;;;0.70;0.70;;;14.80;99.90;;;;;;6242643;23;20430;-70
2022/10/08 14:11:34;;;;;;;4.90;0.77;;;14.80;99.90;;;;;;6242973;22;20480;-70
2022/10/08 14:14:01;;;;;;;0.20;0.20;;;14.80;99.90;;;;;;6242486;23;20430;-70
2022/10/08 14:16:27;;;;;;;0.17;0.17;;;14.90;99.90;;;;;;6242594;23;20423;-70
2022/10/08 14:18:54;;;;;;;1.17;0.30;;;14.90;99.90;;;;;;6242168;23;20427;-70
2022/10/08 14:21:21;;;;;;;1.43;0.60;;;15.00;99.90;;;;;;6242205;22;20436;-71
2022/10/08 14:23:49;;;;;;;0.30;0.30;;;15.10;99.90;;;;;;6242441;23;20428;-70
2022/10/08 14:26:16;;;;;;;0.30;0.30;;;15.10;99.90;;;;;;6243171;23;20431;-70
2022/10/08 14:28:42;;;;;;;0.20;0.20;;;15.20;99.90;;;;;;6242745;23;20431;-70
2022/10/08 14:31:11;;;;;;;0.20;0.20;;;15.20;99.90;;;;;;6242925;22;20454;-71
2022/10/08 14:33:38;;;;;;;2.17;0.40;;;15.20;99.90;;;;;;6242180;23;20608;-71
2022/10/08 14:36:11;;;;;;;1.23;0.30;;;15.30;99.90;;;;;;6242152;23;20431;-70
2022/10/08 14:38:37;;;;;;;0.30;0.30;;;15.30;99.90;;;;;;6242849;23;20428;-71
2022/10/08 14:41:06;;;;;;;2.90;0.53;;;15.40;99.90;;;;;;6242602;22;20447;-70
2022/10/08 14:43:32;;;;;;;0.40;0.40;;;15.50;99.90;;;;;;6242731;23;20507;-70
2022/10/08 14:45:59;;;;;;;0.80;0.50;;;15.70;99.90;;;;;;6242260;23;20421;-70
2022/10/08 14:48:26;;;;;;;0.23;0.23;;;15.60;99.90;;;;;;6242974;23;20493;-70
2022/10/08 14:50:52;;;;;;;0.20;0.20;;;15.40;99.90;;;;;;6241369;22;20449;-70
2022/10/08 14:53:19;;;;;;;0.17;0.17;;;15.10;99.90;;;;;;6254785;23;20427;-70
2022/10/08 14:55:48;;;;;;;0.40;0.20;;;14.80;99.90;;;;;;6244550;23;20430;-70
2022/10/08 14:58:16;;;;;;;1.27;0.73;;;14.50;99.90;;;;;;6245543;23;20585;-69
2022/10/08 15:00:43;;;;;;;0.20;0.20;;;14.40;99.90;;;;;;6244675;22;20460;-70
2022/10/08 15:03:09;;;;;;;0.57;0.50;;;14.30;99.90;;;;;;6254821;23;20744;-70
2022/10/08 15:05:36;;;;;;;0.50;0.50;;;14.30;99.90;;;;;;6244697;23;20434;-70
2022/10/08 15:08:03;;;;;;;0.70;0.20;;;14.30;99.90;;;;;;6246804;23;20433;-70
2022/10/08 15:10:29;;;;;;;0.20;0.20;;;14.20;99.90;;;;;;6244946;22;20889;-70
2022/10/08 15:12:56;;;;;;;0.43;0.33;;;14.20;99.90;;;;;;6245429;23;20450;-69
2022/10/08 15:15:24;;;;;;;0.30;0.30;;;14.10;99.90;;;;;;6244942;23;20422;-70
2022/10/08 15:17:55;;;;;;;0.37;0.37;;;14.10;99.90;;;;;;6244685;23;20922;-69
2022/10/08 15:20:22;;;;;;;3.87;1.37;;;14.00;99.90;;;;;;6243699;22;20902;-70
2022/10/08 15:22:48;;;;;;;1.00;1.00;;;13.90;99.90;;;;;;6244676;23;20418;-70
2022/10/08 15:25:15;;;;;;;5.13;1.13;;;13.90;99.90;;;;;;6244839;23;20428;-70
2022/10/08 15:27:42;;;;;;;0.50;0.50;;;13.80;99.90;;;;;;6244544;23;20419;-70
2022/10/08 15:30:10;;;;;;;3.07;0.70;;;13.70;99.90;;;;;;6244119;23;20927;-71
2022/10/08 15:32:38;;;;;;;0.40;0.40;;;13.70;99.90;;;;;;6244294;22;20461;-70
2022/10/08 15:35:06;;;;;;;0.50;0.50;;;13.60;99.90;;;;;;6243766;23;20521;-70
2022/10/08 15:37:32;;;;;;;1.33;1.00;;;13.60;99.90;;;;;;6244303;23;20428;-71
2022/10/08 15:39:59;;;;;;;1.33;1.33;;;13.60;99.90;;;;;;6244494;23;20422;-70
2022/10/08 15:42:26;;;;;;;1.20;1.20;;;13.60;99.90;;;;;;6244346;22;20461;-71
2022/10/08 15:44:54;;;;;;;2.40;1.03;;;13.50;99.90;;;;;;6243876;23;20205;-70
2022/10/08 15:47:20;;;;;;;1.40;0.50;;;13.40;99.90;;;;;;6244533;23;20751;-70
2022/10/08 15:49:48;;;;;;;3.13;0.60;;;13.30;99.90;;;;;;6243520;23;20501;-70
2022/10/08 15:52:18;;;;;;;0.73;0.73;;;13.20;99.90;;;;;;6243862;22;20550;-70
2022/10/08 15:54:45;;;;;;;0.38;0.38;;;13.10;99.90;;;;;;6243769;23;20421;-71
2022/10/08 15:57:14;;;;;;;4.28;1.33;;;13.10;99.90;;;;;;6244490;23;20178;-69
2022/10/08 15:59:41;;;;;;;0.40;0.40;;;13.00;99.90;;;;;;6244017;23;20512;-69
2022/10/08 16:02:10;;;;;;;0.97;0.97;;;13.00;99.90;;;;;;6243511;22;20672;-69
2022/10/08 16:04:37;;;;;;;0.83;0.83;;;12.90;99.90;;;;;;6243598;23;20896;-71
2022/10/08 16:07:05;;;;;;;1.85;0.88;;;12.90;99.90;;;;;;6243727;23;20489;-69
2022/10/08 16:09:31;;;;;;;0.50;0.50;;;12.80;99.90;;;;;;6244302;23;20182;-69
2022/10/08 16:11:58;;;;;;;0.63;0.63;;;12.80;99.90;;;;;;6244071;22;20279;-69
2022/10/08 16:14:26;;;;;;;0.80;0.70;;;12.80;99.90;;;;;;6243843;23;20422;-69
2022/10/08 16:16:54;;;;;;;0.38;0.38;;;12.80;99.90;;;;;;6244688;23;20178;-69
2022/10/08 16:19:22;;;;;;;1.55;0.40;;;12.70;99.90;;;;;;6243458;23;20188;-68
2022/10/08 16:21:50;;;;;;;0.60;0.30;;;12.70;99.90;;;;;;6243088;22;20206;-69
2022/10/08 16:24:19;;;;;;;0.30;0.30;;;12.60;99.90;;;;;;6243745;23;20421;-69
2022/10/08 16:26:45;;;;;;;1.85;0.52;;;12.60;99.90;;;;;;6243217;23;20417;-69
2022/10/08 16:29:13;;;;;;;0.30;0.30;;;12.50;99.90;;;;;;6243910;23;20179;-69
2022/10/08 16:31:41;;;;;;;0.73;0.73;;;12.50;99.90;;;;;;6243704;22;20682;-69
2022/10/08 16:34:12;;;;;;;1.40;0.75;;;12.40;99.90;;;;;;6242915;23;20210;-69
2022/10/08 16:36:39;;;;;;;3.15;1.35;;;12.40;99.90;;;;;;6243463;23;20183;-69
2022/10/08 16:39:07;;;;;;;0.65;0.65;;;12.30;99.90;;;;;;6243901;23;20195;-69
2022/10/08 16:41:36;;;;;;;0.75;0.75;;;12.20;99.90;;;;;;6243825;22;20226;-69
2022/10/08 16:44:05;;;;;;;0.65;0.65;;;12.20;99.90;;;;;;6243635;23;20186;-68
2022/10/08 16:46:35;;;;;;;1.98;0.73;;;12.10;99.90;;;;;;6243850;23;20194;-69
2022/10/08 16:49:04;;;;;;;2.42;0.47;;;12.00;99.90;;;;;;6244838;23;20261;-70
2022/10/08 16:51:33;;;;;;;4.55;0.65;;;12.00;99.90;;;;;;6243636;22;20202;-70
2022/10/08 16:54:01;;;;;;;0.70;0.70;;;12.00;99.90;;;;;;6243550;23;20203;-70
2022/10/08 16:56:30;;;;;;;5.55;1.40;;;11.90;99.90;;;;;;6243997;23;20490;-71
2022/10/08 16:59:00;;;;;;;0.88;0.88;;;11.90;99.90;;;;;;6243828;23;20645;-69
2022/10/08 17:01:27;;;;;;;1.50;1.50;;;11.80;99.90;;;;;;6244793;22;20208;-70
2022/10/08 17:03:54;;;;;;;5.18;1.40;;;11.80;99.90;;;;;;6253045;23;20515;-70